DAH2K EGKK-DAAG
Flight info
| Callsign | DAH2K |
|---|---|
| Flight time | N/A |
| Altitude | 39000 |
| Route | SFD Y47 DRAKE L151 SITET UN859 SOPIL DCT BALAN DCT EVPOK DCT NARAK DCT GAI DCT LOMRA DCT ROCAN DCT PUMAL N859 GENIO N855 BUYAH A27 ALR |
| Aircraft | A339/H-SADE1E2E3GHIJ3J5M1P2RWXY/LB2D1 |
Departure
| Time | 2026-05-04 12:21 |
|---|---|
| Airport | London Gatwick Airport (EGKK) |
Arrival
| Time | N/A |
|---|---|
| Airport | Houari Boumediene Airport (DAAG) |
| Time | Latitude | Longitude | Altitude | Speed | Heading |
|---|---|---|---|---|---|
| 2026-05-04 11:27 | 51.15611 | -0.16683 | 211 ft | 0 kts | 168° |
| 2026-05-04 11:35 | 51.15612 | -0.16683 | 211 ft | 0 kts | 168° |
| 2026-05-04 11:55 | 51.15626 | -0.16683 | 217 ft | 0 kts | 78° |
| 2026-05-04 11:55 | 51.15628 | -0.16685 | 217 ft | 0 kts | 67° |
| 2026-05-04 11:56 | 51.15628 | -0.16697 | 222 ft | 2 kts | 28° |
| 2026-05-04 11:56 | 51.15613 | -0.16705 | 222 ft | 1 kts | 124° |
| 2026-05-04 11:56 | 51.15615 | -0.16718 | 216 ft | 1 kts | 170° |
| 2026-05-04 11:56 | 51.15627 | -0.16721 | 220 ft | 4 kts | 171° |
| 2026-05-04 11:57 | 51.15655 | -0.16729 | 214 ft | 4 kts | 171° |
| 2026-05-04 11:57 | 51.15686 | -0.16737 | 212 ft | 4 kts | 239° |
| 2026-05-04 11:57 | 51.15693 | -0.16692 | 215 ft | 4 kts | 260° |
| 2026-05-04 11:57 | 51.15694 | -0.16682 | 216 ft | 0 kts | 257° |
| 2026-05-04 12:02 | 51.15693 | -0.16685 | 211 ft | 1 kts | 257° |
| 2026-05-04 12:03 | 51.15683 | -0.16755 | 213 ft | 13 kts | 257° |
| 2026-05-04 12:03 | 51.15660 | -0.16922 | 218 ft | 24 kts | 258° |
| 2026-05-04 12:03 | 51.15626 | -0.17167 | 213 ft | 21 kts | 257° |
| 2026-05-04 12:03 | 51.15602 | -0.17329 | 218 ft | 10 kts | 257° |
| 2026-05-04 12:04 | 51.15601 | -0.17342 | 215 ft | 2 kts | 257° |
| 2026-05-04 12:04 | 51.15594 | -0.17386 | 213 ft | 3 kts | 257° |
| 2026-05-04 12:04 | 51.15564 | -0.17449 | 217 ft | 12 kts | 232° |
| 2026-05-04 12:04 | 51.15523 | -0.17623 | 214 ft | 21 kts | 259° |
| 2026-05-04 12:05 | 51.15497 | -0.17823 | 211 ft | 18 kts | 258° |
| 2026-05-04 12:05 | 51.15471 | -0.18015 | 217 ft | 7 kts | 257° |
| 2026-05-04 12:05 | 51.15461 | -0.18086 | 222 ft | 9 kts | 257° |
| 2026-05-04 12:05 | 51.15444 | -0.18208 | 216 ft | 10 kts | 257° |
| 2026-05-04 12:06 | 51.15424 | -0.18271 | 216 ft | 4 kts | 216° |
| 2026-05-04 12:06 | 51.15387 | -0.18273 | 218 ft | 7 kts | 176° |
| 2026-05-04 12:06 | 51.15325 | -0.18259 | 214 ft | 11 kts | 170° |
| 2026-05-04 12:06 | 51.15253 | -0.18230 | 216 ft | 7 kts | 165° |
| 2026-05-04 12:07 | 51.15208 | -0.18232 | 220 ft | 5 kts | 205° |
| 2026-05-04 12:07 | 51.15195 | -0.18290 | 218 ft | 8 kts | 254° |
| 2026-05-04 12:07 | 51.15177 | -0.18398 | 216 ft | 13 kts | 255° |
| 2026-05-04 12:07 | 51.15156 | -0.18553 | 215 ft | 15 kts | 258° |
| 2026-05-04 12:08 | 51.15131 | -0.18730 | 210 ft | 19 kts | 257° |
| 2026-05-04 12:08 | 51.15101 | -0.18957 | 219 ft | 23 kts | 258° |
| 2026-05-04 12:08 | 51.15074 | -0.19163 | 218 ft | 11 kts | 258° |
| 2026-05-04 12:08 | 51.15044 | -0.19266 | 221 ft | 9 kts | 223° |
| 2026-05-04 12:09 | 51.15001 | -0.19263 | 221 ft | 6 kts | 170° |
| 2026-05-04 12:09 | 51.14966 | -0.19295 | 216 ft | 7 kts | 226° |
| 2026-05-04 12:09 | 51.14947 | -0.19407 | 219 ft | 18 kts | 255° |
| 2026-05-04 12:09 | 51.14909 | -0.19690 | 215 ft | 32 kts | 258° |
| 2026-05-04 12:10 | 51.14861 | -0.20035 | 211 ft | 26 kts | 257° |
| 2026-05-04 12:10 | 51.14825 | -0.20301 | 216 ft | 26 kts | 259° |
| 2026-05-04 12:10 | 51.14801 | -0.20495 | 210 ft | 10 kts | 258° |
| 2026-05-04 12:10 | 51.14784 | -0.20614 | 218 ft | 11 kts | 256° |
| 2026-05-04 12:11 | 51.14760 | -0.20764 | 210 ft | 16 kts | 255° |
| 2026-05-04 12:11 | 51.14744 | -0.20878 | 212 ft | 7 kts | 258° |
| 2026-05-04 12:11 | 51.14733 | -0.20962 | 216 ft | 0 kts | 258° |
| 2026-05-04 12:13 | 51.14729 | -0.20988 | 215 ft | 6 kts | 258° |
| 2026-05-04 12:14 | 51.14699 | -0.21210 | 214 ft | 4 kts | 258° |
| 2026-05-04 12:15 | 51.14697 | -0.21223 | 219 ft | 1 kts | 258° |
| 2026-05-04 12:15 | 51.14697 | -0.21224 | 219 ft | 0 kts | 258° |
| 2026-05-04 12:15 | 51.14696 | -0.21233 | 216 ft | 3 kts | 258° |
| 2026-05-04 12:16 | 51.14684 | -0.21303 | 219 ft | 9 kts | 248° |
| 2026-05-04 12:16 | 51.14637 | -0.21332 | 217 ft | 8 kts | 185° |
| 2026-05-04 12:16 | 51.14620 | -0.21327 | 216 ft | 0 kts | 171° |
| 2026-05-04 12:18 | 51.14613 | -0.21325 | 215 ft | 4 kts | 171° |
| 2026-05-04 12:18 | 51.14555 | -0.21292 | 219 ft | 14 kts | 150° |
| 2026-05-04 12:19 | 51.14525 | -0.21144 | 212 ft | 15 kts | 83° |
| 2026-05-04 12:19 | 51.14538 | -0.21047 | 221 ft | 0 kts | 77° |
| 2026-05-04 12:20 | 51.14539 | -0.21042 | 221 ft | 3 kts | 77° |
| 2026-05-04 12:20 | 51.14580 | -0.20740 | 218 ft | 70 kts | 77° |
| 2026-05-04 12:21 | 51.14749 | -0.19524 | 220 ft | 152 kts | 78° |
| 2026-05-04 12:21 | 51.14997 | -0.17711 | 745 ft | 176 kts | 77° |
| 2026-05-04 12:21 | 51.15280 | -0.15708 | 1457 ft | 200 kts | 77° |
| 2026-05-04 12:21 | 51.15613 | -0.13417 | 2092 ft | 222 kts | 76° |
| 2026-05-04 12:22 | 51.15957 | -0.11031 | 2995 ft | 224 kts | 78° |
| 2026-05-04 12:22 | 51.16088 | -0.08607 | 3682 ft | 226 kts | 102° |
| 2026-05-04 12:22 | 51.15381 | -0.06393 | 4184 ft | 228 kts | 136° |
| 2026-05-04 12:22 | 51.14002 | -0.05136 | 4487 ft | 240 kts | 165° |
| 2026-05-04 12:23 | 51.12348 | -0.04584 | 5093 ft | 251 kts | 167° |
| 2026-05-04 12:23 | 51.10743 | -0.04011 | 5474 ft | 265 kts | 167° |
| 2026-05-04 12:23 | 51.08947 | -0.03302 | 6189 ft | 267 kts | 163° |
| 2026-05-04 12:23 | 51.07189 | -0.02427 | 6829 ft | 271 kts | 163° |
| 2026-05-04 12:24 | 51.05403 | -0.01556 | 7572 ft | 272 kts | 163° |
| 2026-05-04 12:24 | 51.03574 | -0.00682 | 8255 ft | 276 kts | 164° |
| 2026-05-04 12:24 | 51.02057 | 0.00034 | 8844 ft | 279 kts | 164° |
| 2026-05-04 12:24 | 51.01037 | 0.00514 | 9229 ft | 280 kts | 164° |
| 2026-05-04 12:25 | 50.99145 | 0.01401 | 9991 ft | 282 kts | 164° |
| 2026-05-04 12:25 | 50.97255 | 0.02286 | 10664 ft | 285 kts | 164° |
| 2026-05-04 12:25 | 50.95341 | 0.03183 | 11330 ft | 288 kts | 164° |
| 2026-05-04 12:25 | 50.93403 | 0.04094 | 12010 ft | 291 kts | 164° |
| 2026-05-04 12:26 | 50.91457 | 0.05009 | 12679 ft | 294 kts | 164° |
| 2026-05-04 12:26 | 50.89545 | 0.05908 | 13339 ft | 297 kts | 165° |
| 2026-05-04 12:26 | 50.87700 | 0.06775 | 13950 ft | 300 kts | 165° |
| 2026-05-04 12:27 | 50.86654 | 0.07263 | 14298 ft | 300 kts | 164° |
| 2026-05-04 12:27 | 50.84654 | 0.08195 | 14965 ft | 301 kts | 164° |
| 2026-05-04 12:27 | 50.82646 | 0.09131 | 15573 ft | 304 kts | 164° |
| 2026-05-04 12:27 | 50.80605 | 0.10082 | 16270 ft | 306 kts | 164° |
| 2026-05-04 12:28 | 50.78555 | 0.11039 | 16924 ft | 308 kts | 164° |
| 2026-05-04 12:28 | 50.76450 | 0.11712 | 17548 ft | 310 kts | 175° |
| 2026-05-04 12:28 | 50.74317 | 0.11608 | 18175 ft | 312 kts | 188° |
| 2026-05-04 12:28 | 50.72193 | 0.10849 | 18627 ft | 319 kts | 193° |
| 2026-05-04 12:29 | 50.69982 | 0.09997 | 18775 ft | 335 kts | 193° |
| 2026-05-04 12:29 | 50.67652 | 0.09131 | 18932 ft | 352 kts | 193° |
| 2026-05-04 12:29 | 50.65215 | 0.08243 | 19088 ft | 366 kts | 193° |
| 2026-05-04 12:29 | 50.62718 | 0.07339 | 19527 ft | 369 kts | 193° |
| 2026-05-04 12:30 | 50.60209 | 0.06434 | 20067 ft | 370 kts | 193° |
| 2026-05-04 12:30 | 50.57712 | 0.05535 | 20584 ft | 372 kts | 193° |
| 2026-05-04 12:30 | 50.55280 | 0.04660 | 21074 ft | 374 kts | 193° |
| 2026-05-04 12:30 | 50.52779 | 0.03762 | 21594 ft | 376 kts | 193° |
| 2026-05-04 12:31 | 50.50239 | 0.02850 | 22100 ft | 378 kts | 193° |
| 2026-05-04 12:31 | 50.47675 | 0.01930 | 22621 ft | 380 kts | 194° |
| 2026-05-04 12:31 | 50.45099 | 0.01007 | 23140 ft | 382 kts | 194° |
| 2026-05-04 12:31 | 50.42509 | 0.00079 | 23648 ft | 384 kts | 194° |
| 2026-05-04 12:32 | 50.39907 | -0.00856 | 24161 ft | 384 kts | 193° |
| 2026-05-04 12:32 | 50.34713 | -0.02711 | 25129 ft | 385 kts | 193° |
| 2026-05-04 12:32 | 50.32088 | -0.03649 | 25539 ft | 388 kts | 193° |
| 2026-05-04 12:33 | 50.29462 | -0.04587 | 25961 ft | 390 kts | 193° |
| 2026-05-04 12:33 | 50.26809 | -0.05533 | 26375 ft | 392 kts | 193° |
| 2026-05-04 12:33 | 50.24186 | -0.06418 | 26761 ft | 394 kts | 189° |
| 2026-05-04 12:33 | 50.21432 | -0.06627 | 27154 ft | 398 kts | 178° |
| 2026-05-04 12:34 | 50.18689 | -0.05906 | 27568 ft | 403 kts | 166° |
| 2026-05-04 12:34 | 50.16071 | -0.04309 | 28014 ft | 406 kts | 158° |
| 2026-05-04 12:34 | 50.13498 | -0.02468 | 28356 ft | 409 kts | 158° |
| 2026-05-04 12:34 | 50.10916 | -0.00677 | 28672 ft | 411 kts | 160° |
| 2026-05-04 12:35 | 50.08198 | 0.00770 | 28893 ft | 414 kts | 167° |
| 2026-05-04 12:35 | 50.05401 | 0.01853 | 29297 ft | 414 kts | 168° |
| 2026-05-04 12:35 | 50.02589 | 0.02938 | 29658 ft | 416 kts | 168° |
| 2026-05-04 12:35 | 49.99774 | 0.04036 | 30026 ft | 419 kts | 168° |
| 2026-05-04 12:36 | 49.96995 | 0.05127 | 30329 ft | 421 kts | 168° |
| 2026-05-04 12:36 | 49.94146 | 0.06247 | 30676 ft | 422 kts | 167° |
| 2026-05-04 12:36 | 49.91304 | 0.07363 | 30968 ft | 425 kts | 167° |
| 2026-05-04 12:36 | 49.88426 | 0.08492 | 31270 ft | 427 kts | 167° |
| 2026-05-04 12:37 | 49.85556 | 0.09615 | 31567 ft | 429 kts | 167° |
| 2026-05-04 12:37 | 49.82679 | 0.10741 | 31871 ft | 432 kts | 167° |
| 2026-05-04 12:37 | 49.79792 | 0.11868 | 32148 ft | 434 kts | 167° |
| 2026-05-04 12:37 | 49.76867 | 0.13009 | 32422 ft | 436 kts | 167° |
| 2026-05-04 12:38 | 49.73922 | 0.14156 | 32648 ft | 438 kts | 167° |
| 2026-05-04 12:38 | 49.70946 | 0.15314 | 32874 ft | 440 kts | 167° |
| 2026-05-04 12:38 | 49.67973 | 0.16470 | 33065 ft | 442 kts | 167° |
| 2026-05-04 12:38 | 49.64989 | 0.17652 | 33242 ft | 443 kts | 167° |
| 2026-05-04 12:39 | 49.62001 | 0.18861 | 33413 ft | 445 kts | 166° |
| 2026-05-04 12:39 | 49.60022 | 0.19666 | 33522 ft | 445 kts | 166° |
| 2026-05-04 12:39 | 49.57033 | 0.20878 | 33719 ft | 445 kts | 166° |
| 2026-05-04 12:39 | 49.54031 | 0.22090 | 33908 ft | 445 kts | 166° |
| 2026-05-04 12:40 | 49.51044 | 0.23290 | 34069 ft | 445 kts | 167° |
| 2026-05-04 12:40 | 49.48045 | 0.24493 | 34218 ft | 446 kts | 167° |
| 2026-05-04 12:40 | 49.45047 | 0.25693 | 34365 ft | 446 kts | 167° |
| 2026-05-04 12:40 | 49.42066 | 0.26885 | 34507 ft | 447 kts | 167° |
| 2026-05-04 12:41 | 49.39034 | 0.28096 | 34652 ft | 447 kts | 167° |
| 2026-05-04 12:41 | 49.36053 | 0.29284 | 34791 ft | 448 kts | 167° |